Time;durP1;ratioP1;P1;durP2;ratioP2;P2;SDS_P1;SDS_P2;PMS_P1;PMS_P2;Temp;Humidity;BMP_temperature;BMP_pressure;BME280_temperature;BME280_humidity;BME280_pressure;Samples;Min_cycle;Max_cycle;Signal;HPM_P1;HPM_P2
2022/08/22 00:00:11;;;;;;;12.20;4.03;;;;;;;-144.47;65.57;53338.75;5002421;28;20041;-69
2022/08/22 00:03:04;;;;;;;8.65;3.75;;;;;;;-144.47;66.09;53372.53;5028391;28;20037;-71
2022/08/22 00:05:58;;;;;;;7.93;3.78;;;;;;;-144.47;65.90;53370.53;5031531;28;20017;-72
2022/08/22 00:08:41;;;;;;;11.77;4.40;;;;;;;-144.47;65.97;53360.63;5031021;28;20032;-72
2022/08/22 00:11:12;;;;;;;22.17;4.50;;;;;;;-144.47;66.03;53410.28;5017465;28;20475;-71
2022/08/22 00:14:08;;;;;;;10.95;4.28;;;;;;;-144.47;66.53;53372.53;5031327;28;20029;-69
2022/08/22 00:16:49;;;;;;;9.88;4.05;;;;;;;-144.48;100.00;62369.91;5030827;28;20369;-72
2022/08/22 00:19:44;;;;;;;13.75;3.65;;;;;;;-144.48;100.00;62369.91;5018047;28;20391;-70
2022/08/22 00:22:38;;;;;;;17.42;4.18;;;;;;;-144.48;100.00;62369.91;5028915;28;20041;-72
2022/08/22 00:25:31;;;;;;;10.15;3.50;;;;;;;-144.47;67.37;53336.78;5010595;28;20049;-70
2022/08/22 00:28:26;;;;;;;11.68;4.30;;;;;;;-144.47;67.57;53360.63;5022845;28;20113;-69
2022/08/22 00:31:01;;;;;;;10.43;4.57;;;;;;;-144.47;67.95;53370.53;5012228;28;20064;-70
2022/08/22 00:33:37;;;;;;;17.83;4.70;;;;;;;-144.47;68.17;53346.72;5027865;28;20028;-72
2022/08/22 00:36:15;;;;;;;14.50;5.55;;;;;;;-144.47;68.67;53374.50;5029494;28;20522;-71
2022/08/22 00:38:59;;;;;;;18.10;4.60;;;;;;;-144.47;68.11;53340.75;5029477;28;20033;-72
2022/08/22 00:41:43;;;;;;;10.18;4.53;;;;;;;-144.47;68.76;53370.53;5029296;28;20036;-72
2022/08/22 00:44:30;;;;;;;9.88;4.60;;;;;;;-144.47;69.72;53372.53;5029353;28;20059;-70
2022/08/22 00:47:10;;;;;;;14.00;4.18;;;;;;;-144.47;69.42;53400.34;5018390;28;20103;-71
2022/08/22 00:49:56;;;;;;;11.20;4.47;;;;;;;-144.47;69.30;53384.44;5027599;28;21371;-72
2022/08/22 00:52:39;;;;;;;16.20;4.55;;;;;;;-144.47;69.25;53352.66;5022113;28;20033;-72
2022/08/22 00:55:25;;;;;;;12.85;4.30;;;;;;;-144.47;69.34;53364.59;5029007;28;20036;-73
2022/08/22 00:58:04;;;;;;;9.63;4.20;;;;;;;-144.47;69.55;53362.59;5029047;28;20092;-71
2022/08/22 01:00:38;;;;;;;10.63;4.30;;;;;;;-144.47;69.61;53344.72;5016687;28;20032;-75
2022/08/22 01:03:19;;;;;;;11.15;4.32;;;;;;;-144.47;70.29;53400.34;5017533;28;20142;-72
2022/08/22 01:06:36;;;;;;;14.57;4.53;;;;;;;-144.47;70.09;53396.38;5028698;28;20033;-73
2022/08/22 01:09:30;;;;;;;11.27;4.30;;;;;;;-144.47;70.46;53358.63;4988162;28;20034;-74
2022/08/22 01:12:13;;;;;;;10.93;4.88;;;;;;;-144.47;71.53;53390.41;4971952;28;20500;-73
2022/08/22 01:14:51;;;;;;;10.60;4.63;;;;;;;-144.47;70.97;53402.31;5013731;28;20057;-70
2022/08/22 01:17:25;;;;;;;14.25;4.95;;;;;;;-144.47;70.86;53372.53;5011822;28;20387;-73
2022/08/22 01:20:14;;;;;;;11.57;4.80;;;;;;;-144.47;71.05;53368.56;5029925;28;20030;-73
2022/08/22 01:22:58;;;;;;;11.60;4.82;;;;;;;-144.47;71.36;53350.69;5020276;28;20460;-74
2022/08/22 01:25:42;;;;;;;10.70;4.63;;;;;;;-144.47;71.28;53382.47;5030071;28;20284;-72
2022/08/22 01:28:44;;;;;;;12.18;4.35;;;;;;;-144.47;71.72;53400.34;5029872;28;20049;-75
2022/08/22 01:31:32;;;;;;;16.38;5.03;;;;;;;-144.47;71.62;53366.56;5028448;28;20029;-73
2022/08/22 01:34:09;;;;;;;9.93;3.92;;;;;;;-144.47;71.48;53380.47;5028877;28;20487;-69
2022/08/22 01:36:49;;;;;;;13.82;4.97;;;;;;;-144.47;71.97;53390.41;5028842;28;20121;-72
2022/08/22 01:39:52;;;;;;;9.43;4.60;;;;;;;-144.47;72.09;53398.34;5012954;28;20120;-69
2022/08/22 01:42:20;;;;;;;12.23;5.15;;;;;;;-144.47;72.27;53386.44;5028032;28;20025;-72
2022/08/22 01:44:46;;;;;;;12.80;5.32;;;;;;;-144.47;72.67;53430.13;5026651;28;20053;-70
2022/08/22 01:47:18;;;;;;;14.80;5.28;;;;;;;-144.47;72.71;53384.44;5029606;28;20441;-73
2022/08/22 01:49:57;;;;;;;15.77;5.45;;;;;;;-144.48;100.00;62369.91;5008337;28;20100;-73
2022/08/22 01:52:44;;;;;;;19.25;5.78;;;;;;;-144.47;72.60;53368.56;5020625;28;20029;-70
2022/08/22 01:55:31;;;;;;;14.27;4.95;;;;;;;-144.47;72.19;53406.31;5012329;28;20017;-73
2022/08/22 01:57:59;;;;;;;14.82;6.05;;;;;;;-144.47;72.42;53380.47;5013018;28;20537;-74
2022/08/22 02:00:30;;;;;;;14.25;5.45;;;;;;;-144.47;72.64;53406.31;5028421;28;20120;-74
2022/08/22 02:03:39;;;;;;;13.70;6.38;;;;;;;-144.47;72.90;53382.47;5011917;28;20057;-73
2022/08/22 02:06:08;;;;;;;16.77;6.32;;;;;;;-144.47;73.39;53392.41;5034971;28;20057;-72
2022/08/22 02:08:47;;;;;;;22.20;6.53;;;;;;;-144.47;73.26;53378.50;5027922;28;20052;-74
2022/08/22 02:11:35;;;;;;;15.40;6.15;;;;;;;-144.47;73.67;53420.22;5029038;28;20025;-70
2022/08/22 02:14:20;;;;;;;15.27;6.32;;;;;;;-144.47;73.20;53392.41;5027956;28;20025;-69
2022/08/22 02:17:09;;;;;;;15.57;7.20;;;;;;;-144.47;73.22;53372.53;5028557;28;20155;-74
2022/08/22 02:19:45;;;;;;;12.98;6.78;;;;;;;-144.47;73.29;53400.34;5017572;28;20120;-74
2022/08/22 02:22:13;;;;;;;15.90;6.97;;;;;;;-144.47;73.43;53366.56;5028037;28;20112;-74
2022/08/22 02:24:58;;;;;;;23.52;7.28;;;;;;;-144.47;74.19;53400.34;5029115;28;20025;-72
2022/08/22 02:28:16;;;;;;;21.17;6.88;;;;;;;-144.47;73.42;53384.44;5042833;28;20116;-73
2022/08/22 02:30:53;;;;;;;26.48;6.88;;;;;;;-144.47;73.02;53390.41;4998348;28;20041;-74
2022/08/22 02:33:46;;;;;;;11.15;5.57;;;;;;;-144.47;72.91;53404.31;5027667;28;20538;-70
2022/08/22 02:36:45;;;;;;;16.48;5.65;;;;;;;-144.47;73.16;53428.16;5029380;28;20399;-71
2022/08/22 02:39:35;;;;;;;17.73;5.70;;;;;;;-144.47;73.44;53368.56;5019772;28;20018;-72
2022/08/22 02:42:36;;;;;;;18.50;5.95;;;;;;;-144.47;74.09;53404.31;4992269;28;20034;-70
2022/08/22 02:45:08;;;;;;;15.70;5.07;;;;;;;-144.47;74.13;53384.44;5030732;28;20099;-74
2022/08/22 02:47:47;;;;;;;32.13;5.97;;;;;;;-144.47;74.39;53410.28;5030947;28;20037;-73
2022/08/22 02:50:34;;;;;;;22.63;7.00;;;;;;;-144.47;74.65;53336.78;5014854;28;20029;-70
2022/08/22 02:53:12;;;;;;;16.45;6.32;;;;;;;-144.47;74.43;53396.38;5031384;28;20022;-70
2022/08/22 02:55:49;;;;;;;16.55;5.60;;;;;;;-144.47;74.77;53396.38;5032442;28;20026;-70
2022/08/22 02:58:19;;;;;;;11.70;5.25;;;;;;;-144.47;74.85;53408.28;5021694;28;20079;-72
2022/08/22 03:01:10;;;;;;;11.07;4.90;;;;;;;-144.47;74.31;53394.38;5032282;28;20029;-72
2022/08/22 03:03:40;;;;;;;17.27;5.40;;;;;;;-144.47;74.59;53352.66;5020558;28;20060;-71
2022/08/22 03:06:37;;;;;;;18.85;5.45;;;;;;;-144.48;100.00;62369.91;5030686;28;20029;-73
2022/08/22 03:09:19;;;;;;;14.27;6.15;;;;;;;-144.47;75.06;53394.38;5032228;28;20017;-73
2022/08/22 03:12:00;;;;;;;18.98;6.90;;;;;;;-144.47;75.62;53436.09;5009952;28;20138;-71
2022/08/22 03:14:59;;;;;;;14.68;5.90;;;;;;;-144.47;75.77;53412.25;5031830;28;20029;-71
2022/08/22 03:17:39;;;;;;;19.20;6.32;;;;;;;-144.47;75.97;53384.44;5030187;28;20071;-72
2022/08/22 03:20:18;;;;;;;19.92;6.55;;;;;;;-144.47;75.68;53438.09;5030579;28;20406;-72
2022/08/22 03:22:55;;;;;;;16.10;6.95;;;;;;;-144.47;76.01;53410.28;5018947;28;20044;-70
2022/08/22 03:25:34;;;;;;;15.57;6.78;;;;;;;-144.47;76.11;53360.63;5032086;28;20032;-72
2022/08/22 03:28:14;;;;;;;18.30;7.72;;;;;;;-144.47;76.10;53414.25;5032095;28;20025;-72
2022/08/22 03:30:43;;;;;;;21.02;6.35;;;;;;;-144.47;76.11;53398.34;5014680;28;20049;-72
2022/08/22 03:33:19;;;;;;;17.45;6.35;;;;;;;-144.47;75.95;53402.31;5031496;28;20051;-71
2022/08/22 03:35:45;;;;;;;16.65;6.35;;;;;;;-144.47;75.79;53426.16;5014323;28;20388;-72
2022/08/22 03:38:25;;;;;;;21.17;6.60;;;;;;;-144.47;75.88;53392.41;5031255;28;20033;-70
2022/08/22 03:41:11;;;;;;;9.50;6.13;;;;;;;-144.47;76.17;53384.44;5021061;28;20403;-72
2022/08/22 03:43:55;;;;;;;14.75;6.25;;;;;;;-144.47;76.00;53376.50;5031583;28;20026;-71
2022/08/22 03:46:45;;;;;;;15.73;7.00;;;;;;;-144.47;75.94;53414.25;5030256;28;20098;-73
2022/08/22 03:49:48;;;;;;;22.20;10.20;;;;;;;-144.47;75.81;53364.59;5019535;28;20032;-71
2022/08/22 03:52:28;;;;;;;16.13;7.35;;;;;;;-144.47;75.56;53406.31;5030074;28;20025;-70
2022/08/22 03:54:56;;;;;;;29.13;7.53;;;;;;;-144.47;76.37;53390.41;5030064;28;20157;-70
2022/08/22 03:57:43;;;;;;;16.85;7.45;;;;;;;-144.47;76.03;53450.00;5029817;28;20013;-71
2022/08/22 04:00:22;;;;;;;14.95;6.88;;;;;;;-144.47;76.11;53418.22;5031484;28;20107;-71
2022/08/22 04:02:50;;;;;;;;;;;;;;;-144.47;76.04;53444.03;5030232;28;20022;-73
2022/08/22 04:05:40;;;;;;;18.52;7.03;;;;;;;-144.47;76.11;53430.13;5031258;28;19915;-70
2022/08/22 04:08:27;;;;;;;14.90;6.78;;;;;;;-144.47;76.35;53442.06;5017308;28;20029;-72
2022/08/22 04:11:23;;;;;;;18.88;7.55;;;;;;;-144.47;76.29;53408.28;5043537;23;20049;-66
2022/08/22 04:13:48;;;;;;;14.90;6.80;;;;;;;-144.47;76.19;53422.19;5009866;28;20124;-66
2022/08/22 04:16:52;;;;;;;15.07;7.18;;;;;;;-144.47;76.22;53418.22;5011075;28;20129;-68
2022/08/22 04:19:37;;;;;;;21.25;9.23;;;;;;;-144.47;76.91;53400.34;5011175;28;20195;-67
2022/08/22 04:22:27;;;;;;;21.27;7.40;;;;;;;-144.47;76.86;53422.19;4999432;28;20153;-67
2022/08/22 04:25:02;;;;;;;21.02;7.25;;;;;;;-144.47;77.06;53408.28;4991700;28;20088;-67
2022/08/22 04:27:58;;;;;;;21.60;9.35;;;;;;;-144.47;77.45;53390.41;4990057;28;20018;-66
2022/08/22 04:30:34;;;;;;;17.50;10.23;;;;;;;-144.47;77.41;53412.25;4991612;28;20034;-66
2022/08/22 04:33:02;;;;;;;25.60;9.90;;;;;;;-144.47;77.63;53364.59;4986911;28;20062;-66
2022/08/22 04:35:51;;;;;;;20.42;10.45;;;;;;;-144.47;77.98;53402.31;4990651;28;20113;-65
2022/08/22 04:38:26;;;;;;;17.67;9.20;;;;;;;-144.47;78.31;53404.31;4975103;28;20118;-67
2022/08/22 04:41:08;;;;;;;16.83;8.65;;;;;;;-144.47;78.57;53400.34;4991050;28;20037;-67
2022/08/22 04:43:46;;;;;;;22.08;9.60;;;;;;;-144.47;78.65;53408.28;4970954;28;20577;-69
2022/08/22 04:46:22;;;;;;;17.85;7.97;;;;;;;-144.47;78.81;53442.06;4989401;28;20030;-66
2022/08/22 04:49:09;;;;;;;17.08;7.80;;;;;;;-144.47;79.19;53404.31;4989603;28;20027;-65
2022/08/22 04:51:46;;;;;;;25.33;7.85;;;;;;;-144.47;78.96;53392.41;5004680;28;20026;-68
2022/08/22 04:54:27;;;;;;;19.15;8.60;;;;;;;-144.47;79.09;53400.34;4989727;28;20037;-67
2022/08/22 04:56:58;;;;;;;22.45;8.57;;;;;;;-144.47;79.40;53412.25;4985947;28;20034;-63
2022/08/22 04:59:25;;;;;;;22.42;7.88;;;;;;;-144.47;78.87;53434.09;4978571;28;20033;-66
2022/08/22 05:02:04;;;;;;;18.05;10.25;;;;;;;-144.47;78.52;53408.28;4990554;28;20026;-66
2022/08/22 05:04:42;;;;;;;15.98;8.55;;;;;;;-144.47;78.31;53390.41;4989310;28;20037;-68
2022/08/22 05:07:16;;;;;;;15.23;7.60;;;;;;;-144.47;78.22;53394.38;4989825;28;20029;-64
2022/08/22 05:09:48;;;;;;;14.27;7.32;;;;;;;-144.47;78.00;53406.31;4978558;28;20045;-67
2022/08/22 05:12:23;;;;;;;17.15;8.55;;;;;;;-144.47;77.75;53432.13;4987571;28;20026;-67
2022/08/22 05:14:54;;;;;;;16.20;8.05;;;;;;;-144.47;77.97;53394.38;4985014;28;20627;-67
2022/08/22 05:17:24;;;;;;;21.98;8.63;;;;;;;-144.47;77.66;53390.41;4981434;28;20030;-65
2022/08/22 05:19:54;;;;;;;15.52;8.48;;;;;;;-144.47;77.50;53406.31;4990820;28;20456;-67
2022/08/22 05:22:28;;;;;;;19.13;10.25;;;;;;;-144.47;77.67;53414.25;4990746;28;20030;-66
2022/08/22 05:25:11;;;;;;;20.27;8.57;;;;;;;-144.47;77.27;53402.31;5005705;28;20499;-64
2022/08/22 05:27:47;;;;;;;18.45;8.23;;;;;;;-144.47;77.20;53430.13;4989354;28;20621;-68
2022/08/22 05:30:20;;;;;;;15.63;8.60;;;;;;;-144.47;77.41;53422.19;4990457;28;20128;-68
2022/08/22 05:32:52;;;;;;;25.05;10.45;;;;;;;-144.47;77.66;53422.19;4989887;28;20033;-68
2022/08/22 05:35:24;;;;;;;22.95;10.38;;;;;;;-144.47;77.40;53408.28;4989713;28;20114;-63
2022/08/22 05:37:53;;;;;;;15.88;9.77;;;;;;;-144.47;77.40;53400.34;4989377;28;20022;-66
2022/08/22 05:40:24;;;;;;;25.40;9.40;;;;;;;-144.47;77.47;53380.47;4990117;28;20022;-67
2022/08/22 05:42:51;;;;;;;18.83;8.18;;;;;;;-144.47;77.27;53400.34;4988776;28;20514;-68
2022/08/22 05:45:18;;;;;;;16.05;7.75;;;;;;;-144.47;76.91;53390.41;4990276;28;20080;-68
2022/08/22 05:48:12;;;;;;;24.48;8.95;;;;;;;-144.47;76.59;53390.41;4988658;28;20052;-66
2022/08/22 05:50:40;;;;;;;32.78;10.27;;;;;;;-144.47;76.65;53428.16;4964577;28;20035;-68
2022/08/22 05:53:09;;;;;;;;;;;;;;;-144.47;76.11;53414.25;4990381;28;20221;-67
2022/08/22 05:56:00;;;;;;;16.08;8.75;;;;;;;-144.47;76.02;53400.34;4990139;28;19910;-67
2022/08/22 05:58:38;;;;;;;17.23;9.38;;;;;;;-144.47;75.95;53382.47;4974240;28;20069;-68
2022/08/22 06:01:36;;;;;;;15.88;8.65;;;;;;;-144.47;75.22;53382.47;4981260;28;20488;-65
2022/08/22 06:04:20;;;;;;;22.38;8.95;;;;;;;-144.47;74.61;53384.44;4983721;28;20018;-67
2022/08/22 06:06:51;;;;;;;28.15;9.25;;;;;;;-144.47;74.42;53360.63;4983232;28;20030;-64
2022/08/22 06:09:45;;;;;;;25.05;9.57;;;;;;;-144.47;74.19;53384.44;5002072;28;20088;-67
2022/08/22 06:12:25;;;;;;;17.55;8.63;;;;;;;-144.47;74.42;53384.44;4963271;28;20043;-68
2022/08/22 06:15:23;;;;;;;21.88;10.30;;;;;;;-144.47;74.37;53374.50;4988263;28;20026;-67
2022/08/22 06:17:57;;;;;;;24.17;9.07;;;;;;;-144.47;74.29;53392.41;4974489;28;20046;-68
2022/08/22 06:20:45;;;;;;;20.77;9.27;;;;;;;-144.47;74.12;53392.41;4985001;28;20033;-65
2022/08/22 06:23:16;;;;;;;24.60;9.77;;;;;;;-144.47;74.12;53380.47;4998984;28;20049;-65
2022/08/22 06:25:45;;;;;;;18.92;9.82;;;;;;;-144.47;73.63;53380.47;5001370;28;20057;-65
2022/08/22 06:28:18;;;;;;;20.45;9.35;;;;;;;-144.47;73.67;53396.38;4982996;28;20023;-65
2022/08/22 06:30:46;;;;;;;22.60;9.25;;;;;;;-144.47;72.96;53406.31;4990768;28;20019;-68
2022/08/22 06:33:17;;;;;;;14.43;8.45;;;;;;;-144.47;72.92;53402.31;5012318;28;20035;-63
2022/08/22 06:38:55;;;;;;;25.30;9.90;;;;;;;-144.48;100.00;62369.91;4988032;28;20146;-66
2022/08/22 06:41:25;;;;;;;26.45;9.40;;;;;;;-144.47;72.38;53354.66;4973304;28;20567;-69
2022/08/22 06:43:51;;;;;;;16.85;8.20;;;;;;;-144.47;72.28;53364.59;4986663;28;20113;-68
2022/08/22 06:46:19;;;;;;;20.65;8.88;;;;;;;-144.47;71.51;53380.47;4998696;28;20108;-67
2022/08/22 06:48:45;;;;;;;18.33;9.27;;;;;;;-144.47;71.06;53400.34;5008244;28;20085;-67
2022/08/22 06:51:14;;;;;;;21.92;9.02;;;;;;;-144.47;70.86;53400.34;4973414;28;20412;-67
2022/08/22 06:53:46;;;;;;;16.60;8.73;;;;;;;-144.47;70.80;53374.50;4984970;28;20045;-66
2022/08/22 06:56:20;;;;;;;25.42;9.38;;;;;;;-144.47;71.00;53380.47;4992030;28;20030;-68
2022/08/22 06:58:48;;;;;;;23.30;9.60;;;;;;;-144.47;70.73;53372.53;4975375;28;20035;-66
2022/08/22 07:01:23;;;;;;;21.00;8.93;;;;;;;-144.47;70.52;53386.44;4975791;28;20022;-66
2022/08/22 07:03:52;;;;;;;28.50;10.30;;;;;;;-144.47;70.02;53386.44;4975321;28;20132;-67
2022/08/22 07:06:27;;;;;;;21.67;8.15;;;;;;;-144.47;69.35;53372.53;5010008;28;20026;-67
2022/08/22 07:08:54;;;;;;;22.33;9.20;;;;;;;-144.47;68.47;53340.75;4992498;28;20667;-67
2022/08/22 07:11:26;;;;;;;31.80;9.77;;;;;;;-144.47;67.80;53322.88;4975367;28;20522;-67
2022/08/22 07:14:04;;;;;;;21.25;8.95;;;;;;;-144.47;66.73;53354.66;4993106;28;20029;-67
2022/08/22 07:16:59;;;;;;;26.52;10.27;;;;;;;-144.47;65.79;53340.75;4975621;28;20147;-68
2022/08/22 07:19:36;;;;;;;24.65;9.80;;;;;;;-144.47;64.45;53336.78;4983970;28;20038;-67
2022/08/22 07:22:15;;;;;;;26.73;9.70;;;;;;;-144.47;62.91;53332.81;4975506;28;20049;-67
2022/08/22 07:24:47;;;;;;;22.08;8.32;;;;;;;-144.47;62.38;53358.63;4990924;28;20264;-69
2022/08/22 07:27:30;;;;;;;15.85;8.52;;;;;;;-144.47;61.81;53320.88;4992505;28;20053;-68
2022/08/22 07:30:11;;;;;;;23.48;9.13;;;;;;;-144.47;60.90;53332.81;4992038;28;20026;-66
2022/08/22 07:32:54;;;;;;;20.75;7.55;;;;;;;-144.47;59.40;53342.72;4991086;28;20109;-66
2022/08/22 07:35:25;;;;;;;20.13;7.45;;;;;;;-144.47;58.74;53324.84;4990991;28;20030;-67
2022/08/22 07:37:57;;;;;;;18.65;7.72;;;;;;;-144.47;57.76;53310.94;4990566;28;20038;-68
2022/08/22 07:40:32;;;;;;;17.35;7.50;;;;;;;-144.47;57.93;53318.91;4992386;28;20104;-67
2022/08/22 07:43:02;;;;;;;27.75;7.22;;;;;;;-144.47;56.75;53348.69;4978966;28;20029;-65
2022/08/22 07:45:42;;;;;;;25.17;7.03;;;;;;;-144.47;54.91;53316.91;4991740;28;20023;-66
2022/08/22 07:48:14;;;;;;;21.73;7.18;;;;;;;-144.47;54.57;53320.88;4992406;28;20022;-69
2022/08/22 07:50:55;;;;;;;17.38;6.22;;;;;;;-144.47;53.48;53328.81;5006951;28;20190;-67
2022/08/22 07:53:36;;;;;;;18.58;5.47;;;;;;;-144.47;52.45;53332.81;4994464;28;20029;-66
2022/08/22 07:56:05;;;;;;;23.00;6.25;;;;;;;-144.47;52.56;53303.00;4990705;28;20042;-66
2022/08/22 07:58:38;;;;;;;11.77;5.35;;;;;;;-144.47;52.72;53314.91;4992089;28;20069;-66
2022/08/22 08:01:07;;;;;;;19.23;5.88;;;;;;;-144.47;53.76;53301.03;4990835;28;20022;-66
2022/08/22 08:03:32;;;;;;;21.20;6.05;;;;;;;-144.47;53.91;53310.94;4991997;28;20081;-65
2022/08/22 08:06:00;;;;;;;20.15;6.28;;;;;;;-144.47;53.59;53277.19;4990573;28;20469;-67
2022/08/22 08:08:32;;;;;;;25.00;5.43;;;;;;;-144.47;52.94;53299.03;4990898;28;20022;-64
2022/08/22 08:10:59;;;;;;;13.70;5.32;;;;;;;-144.47;52.39;53305.00;4992231;28;20091;-65
2022/08/22 08:14:00;;;;;;;18.38;5.85;;;;;;;-144.47;51.47;53322.88;4992119;28;20473;-66
2022/08/22 08:16:31;;;;;;;10.90;4.32;;;;;;;-144.47;51.06;53279.16;4978741;28;20030;-67
2022/08/22 08:18:59;;;;;;;19.45;5.47;;;;;;;-144.47;51.31;53285.13;4990265;28;20030;-67
2022/08/22 08:21:48;;;;;;;14.57;5.68;;;;;;;-144.47;51.34;53295.06;4991867;28;20026;-69
2022/08/22 08:24:19;;;;;;;15.88;5.05;;;;;;;-144.47;51.72;53275.19;4991762;28;20476;-64
2022/08/22 08:29:40;;;;;;;19.50;5.50;;;;;;;-144.47;49.93;53275.19;4991509;28;20084;-67
2022/08/22 08:32:09;;;;;;;16.88;5.82;;;;;;;-144.47;49.26;53305.00;4991364;28;20026;-66
2022/08/22 08:34:37;;;;;;;13.05;4.90;;;;;;;-144.47;48.21;53267.25;4991554;28;20053;-64
2022/08/22 08:37:28;;;;;;;21.60;5.35;;;;;;;-144.47;48.41;53291.09;4991408;28;20023;-66
2022/08/22 08:39:58;;;;;;;13.63;4.85;;;;;;;-144.47;48.20;53249.38;4986509;28;20031;-67
2022/08/22 08:43:26;;;;;;;12.15;3.85;;;;;;;-144.47;46.18;53273.22;4991187;28;20026;-64
2022/08/22 08:46:33;;;;;;;14.40;4.60;;;;;;;-144.47;45.86;53279.16;4930738;29;20382;-66
2022/08/22 08:49:08;;;;;;;18.15;3.90;;;;;;;-144.47;44.64;53223.56;4966377;28;20065;-66
2022/08/22 08:51:46;;;;;;;17.48;3.63;;;;;;;-144.47;43.68;53247.38;4989702;28;20041;-66
2022/08/22 08:54:45;;;;;;;13.47;3.17;;;;;;;-144.47;43.19;53257.31;4990039;28;20468;-65
2022/08/22 08:57:19;;;;;;;9.98;3.42;;;;;;;-144.47;43.37;53273.22;4986049;28;20099;-68
2022/08/22 09:00:31;;;;;;;11.57;2.83;;;;;;;-144.47;42.37;53263.28;4985576;28;20088;-67
2022/08/22 09:03:35;;;;;;;17.40;3.15;;;;;;;-144.47;43.59;53243.41;4970491;28;20136;-67
2022/08/22 09:06:12;;;;;;;11.27;3.10;;;;;;;-144.47;43.80;53251.34;4989284;28;20022;-66
2022/08/22 09:08:52;;;;;;;7.97;2.60;;;;;;;-144.47;43.86;53259.31;4990651;28;20022;-66
2022/08/22 09:11:47;;;;;;;10.70;3.53;;;;;;;-144.47;43.28;53249.38;4978544;28;20117;-66
2022/08/22 09:14:34;;;;;;;11.80;3.25;;;;;;;-144.47;43.45;53269.22;4991068;28;20055;-66
2022/08/22 09:17:06;;;;;;;10.30;2.80;;;;;;;-144.47;42.59;53251.34;4985696;28;20101;-66
2022/08/22 09:19:50;;;;;;;12.75;2.35;;;;;;;-144.47;43.19;53249.38;4991170;28;20105;-67
2022/08/22 09:22:34;;;;;;;11.05;2.70;;;;;;;-144.48;100.00;62369.91;4990878;28;20113;-66
2022/08/22 09:25:12;;;;;;;9.05;2.60;;;;;;;-144.48;100.00;62369.91;4993472;28;20026;-68
2022/08/22 09:27:59;;;;;;;7.50;2.33;;;;;;;-144.47;41.80;53233.47;4978254;28;20046;-67
2022/08/22 09:30:47;;;;;;;9.10;2.63;;;;;;;-144.47;42.28;53259.31;4976290;28;20488;-66
2022/08/22 09:33:17;;;;;;;10.10;2.53;;;;;;;-144.47;42.37;53235.47;4973542;28;20057;-65
2022/08/22 09:36:02;;;;;;;11.35;2.92;;;;;;;-144.47;42.26;53233.47;4972784;28;21382;-68
2022/08/22 09:38:45;;;;;;;13.30;2.42;;;;;;;-144.48;100.00;62369.91;4976889;28;20069;-67
2022/08/22 09:41:31;;;;;;;8.18;2.53;;;;;;;-144.48;100.00;62369.91;4976747;28;20035;-66
2022/08/22 09:44:28;;;;;;;9.68;2.40;;;;;;;-144.48;100.00;62369.91;4974049;28;20164;-69
2022/08/22 09:47:12;;;;;;;9.57;2.38;;;;;;;-144.48;100.00;62369.91;4975861;28;20419;-68
2022/08/22 09:49:46;;;;;;;5.28;2.03;;;;;;;-144.48;100.00;62369.91;4975893;28;20045;-67
2022/08/22 09:52:42;;;;;;;19.63;2.80;;;;;;;-144.48;100.00;62369.91;4977139;28;20054;-67
2022/08/22 09:55:21;;;;;;;11.40;1.85;;;;;;;-144.48;100.00;62369.91;4972088;28;20398;-67
2022/08/22 09:57:51;;;;;;;9.18;2.00;;;;;;;-144.48;100.00;62369.91;4971662;28;20018;-67
2022/08/22 10:00:26;;;;;;;8.88;2.45;;;;;;;-144.48;100.00;62369.91;4976384;28;20025;-65
2022/08/22 10:03:15;;;;;;;8.10;2.60;;;;;;;-144.48;100.00;62369.91;4977437;28;20019;-65
2022/08/22 10:05:46;;;;;;;6.82;2.53;;;;;;;-144.48;100.00;62369.91;4971014;28;20214;-68
2022/08/22 10:08:35;;;;;;;5.70;1.73;;;;;;;-144.48;100.00;62369.91;4976148;28;20030;-66
2022/08/22 10:11:07;;;;;;;4.15;1.77;;;;;;;-144.48;100.00;62369.91;4970232;28;20037;-66
2022/08/22 10:13:46;;;;;;;9.70;2.22;;;;;;;-144.48;100.00;62369.91;4972981;28;20034;-66
2022/08/22 10:16:24;;;;;;;12.93;2.03;;;;;;;-144.48;100.00;62369.91;5003033;22;20045;-70
2022/08/22 10:18:55;;;;;;;8.32;1.95;;;;;;;-144.48;100.00;62369.91;5017180;28;20061;-70
2022/08/22 10:21:43;;;;;;;8.30;1.73;;;;;;;-144.48;100.00;62369.91;5027661;28;20037;-68
2022/08/22 10:24:26;;;;;;;;;;;;;;;-144.48;100.00;62369.91;5028348;28;20037;-68
2022/08/22 10:26:54;;;;;;;9.20;1.98;;;;;;;-144.48;100.00;62369.91;5026183;28;19924;-68
2022/08/22 10:29:38;;;;;;;7.97;2.65;;;;;;;-144.48;100.00;62369.91;5027764;28;20107;-69
2022/08/22 10:32:24;;;;;;;6.20;2.05;;;;;;;-144.48;100.00;62369.91;5028873;28;20022;-68
2022/08/22 10:34:56;;;;;;;8.95;2.45;;;;;;;-144.48;100.00;62369.91;5009253;28;20053;-68
2022/08/22 10:37:51;;;;;;;7.30;3.03;;;;;;;-144.48;100.00;62369.91;5009560;28;20049;-69
2022/08/22 10:40:27;;;;;;;10.15;2.17;;;;;;;-144.48;100.00;62369.91;4996063;28;20387;-70
2022/08/22 10:43:07;;;;;;;9.98;2.70;;;;;;;-144.48;100.00;62369.91;5013921;28;20025;-69
2022/08/22 10:45:37;;;;;;;8.00;2.60;;;;;;;-144.48;100.00;62369.91;5014725;28;20068;-69
2022/08/22 10:48:25;;;;;;;9.05;2.40;;;;;;;-144.48;100.00;62369.91;5011090;28;20045;-69
2022/08/22 10:50:58;;;;;;;8.80;2.28;;;;;;;-144.48;100.00;62369.91;5014257;28;20514;-70
2022/08/22 10:53:41;;;;;;;11.40;1.92;;;;;;;-144.48;100.00;62369.91;5012025;28;20112;-66
2022/08/22 10:56:25;;;;;;;7.60;1.85;;;;;;;-144.48;100.00;62369.91;5010077;28;20037;-71
2022/08/22 10:58:54;;;;;;;8.05;1.90;;;;;;;-144.48;100.00;62369.91;5013115;28;20053;-71
2022/08/22 11:01:24;;;;;;;13.65;2.17;;;;;;;-144.48;100.00;62369.91;5009967;28;20060;-70
2022/08/22 11:04:11;;;;;;;8.48;1.85;;;;;;;-144.48;100.00;62369.91;5012328;28;20025;-70
2022/08/22 11:06:42;;;;;;;5.63;2.05;;;;;;;-144.48;100.00;62369.91;5015898;28;20033;-66
2022/08/22 11:09:34;;;;;;;10.48;2.10;;;;;;;-144.48;100.00;62369.91;5020028;28;20136;-69
2022/08/22 11:12:14;;;;;;;10.35;2.00;;;;;;;-144.48;100.00;62369.91;5012832;28;20115;-70
2022/08/22 11:15:19;;;;;;;8.73;2.17;;;;;;;-144.48;100.00;62369.91;5016376;28;20037;-69
2022/08/22 11:18:13;;;;;;;11.73;2.72;;;;;;;-144.48;100.00;62369.91;4981420;28;20090;-71
2022/08/22 11:20:38;;;;;;;11.20;2.40;;;;;;;-144.48;100.00;62369.91;5017421;28;20120;-70
2022/08/22 11:23:09;;;;;;;9.20;2.72;;;;;;;-144.48;100.00;62369.91;5013608;28;20112;-70
2022/08/22 11:26:01;;;;;;;14.57;2.40;;;;;;;-144.48;100.00;62369.91;5017570;28;20543;-69
2022/08/22 11:28:33;;;;;;;10.38;1.85;;;;;;;-144.48;100.00;62369.91;5016496;28;20028;-67
2022/08/22 11:31:32;;;;;;;7.28;2.15;;;;;;;-144.48;100.00;62369.91;5013091;28;20124;-70
2022/08/22 11:34:19;;;;;;;7.25;2.00;;;;;;;-144.48;100.00;62369.91;5013094;28;20033;-69
2022/08/22 11:36:55;;;;;;;7.57;2.03;;;;;;;-144.48;100.00;62369.91;5017053;28;20056;-68
2022/08/22 11:39:32;;;;;;;12.20;2.30;;;;;;;-144.48;100.00;62369.91;5015783;28;20125;-70
2022/08/22 11:42:10;;;;;;;6.70;2.10;;;;;;;-144.48;100.00;62369.91;5013768;28;20108;-70
2022/08/22 11:44:44;;;;;;;13.30;2.20;;;;;;;-144.48;100.00;62369.91;5015785;28;20040;-71
2022/08/22 11:47:14;;;;;;;10.10;2.63;;;;;;;-144.48;100.00;62369.91;5030194;28;20037;-67
2022/08/22 11:50:00;;;;;;;12.05;2.50;;;;;;;-144.48;100.00;62369.91;5015493;28;20038;-69
2022/08/22 11:52:37;;;;;;;7.95;3.10;;;;;;;-144.48;100.00;62369.91;5014380;28;20026;-68
2022/08/22 11:55:35;;;;;;;8.93;1.95;;;;;;;-144.48;100.00;62369.91;5016215;28;20029;-70
2022/08/22 11:58:21;;;;;;;6.25;2.17;;;;;;;-144.48;100.00;62369.91;5010618;28;20037;-69
2022/08/22 12:00:55;;;;;;;10.27;2.25;;;;;;;-144.48;100.00;62369.91;5028981;28;20700;-68
2022/08/22 12:03:47;;;;;;;9.27;2.30;;;;;;;-144.48;100.00;62369.91;5031010;28;20053;-69
2022/08/22 12:06:35;;;;;;;8.63;2.15;;;;;;;-144.48;100.00;62369.91;5015700;28;20321;-67
2022/08/22 12:09:45;;;;;;;13.73;2.45;;;;;;;-144.48;100.00;62369.91;5011759;28;20078;-70
2022/08/22 12:12:55;;;;;;;6.82;2.40;;;;;;;-144.48;100.00;62369.91;5006716;28;20092;-69
2022/08/22 12:15:33;;;;;;;9.65;1.90;;;;;;;-144.48;100.00;62369.91;5005212;28;20040;-66